Flight Track Log - Related Links

Times and Time Zones

All times are in EDT time to prevent confusion due to time zone crossing. See the COM3167 flight status page for this flight to view local times or setup timezone preferences in your user account.

Time Position Orientation Groundspeed Altitude Reporting Facility
EDT Latitude Longitude Course Direction KTS MPH feet Rate Location/Type
Sun 06:52:21 AM 39.1500 -76.6500 270° West 163 188 2,100  Level Potomac TRACON
Sun 06:57:16 AM 39.1500 -77.0500 251° West 354 407 12,800 2,055 Climbing Potomac TRACON
Sun 06:58:23 AM 39.1156 -77.1753 253° West 385 443 14,500 1,843 Climbing Washington Center
Sun 06:59:23 AM 39.0847 -77.3056 251° West 385 443 16,700 1,869 Climbing Washington Center
Sun 07:00:25 AM 39.0514 -77.4333 251° West 385 443 18,300 1,785 Climbing Washington Center
Sun 07:01:24 AM 39.0161 -77.5686 253° West 392 451 20,300 1,850 Climbing Washington Center
Sun 07:02:25 AM 38.9800 -77.7197 251° West 402 463 22,000 1,488 Climbing Washington Center
Sun 07:03:25 AM 38.9442 -77.8550 251° West 402 463 23,300 1,311 Climbing Washington Center
Sun 07:04:24 AM 38.9058 -78.0006 252° West 419 482 24,600 1,322 Climbing Washington Center
Sun 07:05:23 AM 38.8697 -78.1458 260° West 425 489 25,900 1,200 Climbing Washington Center
Sun 07:06:24 AM 38.8497 -78.2944 270° West 425 489 27,000 541 Climbing Washington Center
Sun 07:07:25 AM 38.8506 -78.4386 269° West 420 483 27,000  Level Washington Center
Sun 07:08:24 AM 38.8494 -78.5717 269° West 420 483 27,000  Level Washington Center
Sun 07:09:24 AM 38.8478 -78.7131 268° West 420 483 27,000  Level Washington Center
Sun 07:10:25 AM 38.8442 -78.8542 268° West 409 471 27,000  Level Washington Center
Sun 07:11:25 AM 38.8403 -78.9950 269° West 404 465 27,000 350 Level Washington Center
Sun 07:12:25 AM 38.8381 -79.1417 270° West 404 465 27,700 508 Climbing Washington Center
Sun 07:13:23 AM 38.8378 -79.2908 268° West 404 465 28,000 153 Climbing Washington Center
Sun 07:14:23 AM 38.8333 -79.4344 271° West 404 465 28,000  Level Washington Center
Sun 07:15:25 AM 38.8361 -79.6025 268° West 404 465 28,000  Level Washington Center
Sun 07:16:23 AM 38.8311 -79.7517 269° West 419 482 28,000  Level Washington Center
Sun 07:17:22 AM 38.8283 -79.8847 267° West 419 482 28,000  Level Washington Center
Sun 07:18:24 AM 38.8233 -80.0283 268° West 419 482 28,000  Level Washington Center
Sun 07:19:34 AM 38.8189 -80.2011 268° West 415 478 28,000  Level Indianapolis Center
Sun 07:20:34 AM 38.8147 -80.3453 268° West 415 478 28,000  Level Indianapolis Center
Sun 07:21:34 AM 38.8103 -80.4922 265° West 410 472 28,000  Level Indianapolis Center
Sun 07:22:35 AM 38.7994 -80.6419 260° West 415 478 28,000  Level Indianapolis Center
Sun 07:23:34 AM 38.7800 -80.7864 260° West 420 483 28,000  Level Indianapolis Center
Sun 07:24:34 AM 38.7583 -80.9364 260° West 427 491 28,000  Level Indianapolis Center
Sun 07:25:34 AM 38.7367 -81.0864 259° West 432 497 28,000  Level Indianapolis Center
Sun 07:26:34 AM 38.7144 -81.2336 259° West 432 497 28,000  Level Indianapolis Center
Sun 07:27:34 AM 38.6922 -81.3778 261° West 427 491 28,000  Level Indianapolis Center
Sun 07:28:34 AM 38.6703 -81.5489 258° West 434 499 28,000  Level Indianapolis Center
Sun 07:29:34 AM 38.6456 -81.7011 259° West 440 506 28,000  Level Indianapolis Center
Sun 07:30:35 AM 38.6231 -81.8531 259° West 440 506 28,000  Level Indianapolis Center
Sun 07:31:34 AM 38.6000 -82.0106 259° West 445 512 28,000  Level Indianapolis Center
Sun 07:32:34 AM 38.5750 -82.1678 259° West 450 518 28,000 -500 Level Indianapolis Center
Sun 07:33:34 AM 38.5517 -82.3194 259° West 450 518 27,000 -1,250 Descending Indianapolis Center
Sun 07:34:34 AM 38.5281 -82.4739 258° West 450 518 25,500 -1,500 Descending Indianapolis Center
Sun 07:35:34 AM 38.5022 -82.6256 259° West 444 511 24,000 -1,488 Descending Indianapolis Center
Sun 07:36:35 AM 38.4783 -82.7772 258° West 449 517 22,500 -1,537 Descending Indianapolis Center
Sun 07:37:35 AM 38.4542 -82.9258 265° West 444 511 20,900 -1,412 Descending Indianapolis Center
Sun 07:38:34 AM 38.4444 -83.0664 282° West 424 488 19,700 -1,412 Descending Indianapolis Center
Sun 07:39:34 AM 38.4678 -83.2042 286° West 402 463 18,100 -1,500 Descending Indianapolis Center
Sun 07:40:34 AM 38.4975 -83.3367 283° West 397 457 16,700 -1,450 Descending Indianapolis Center
Sun 07:41:34 AM 38.5225 -83.4719 286° West 392 451 15,200 -1,500 Descending Indianapolis Center
Sun 07:42:34 AM 38.5497 -83.5969 283° West 392 451 13,700 -1,500 Descending Indianapolis Center
Sun 07:43:34 AM 38.5725 -83.7269 287° West 375 432 12,200 -1,400 Descending Indianapolis Center
Sun 07:44:34 AM 38.5975 -83.8333 289° West 364 419 10,900 -1,100 Descending Indianapolis Center
Sun 07:45:34 AM 38.6303 -83.9558 291° West 364 419 10,000 -446 Descending Indianapolis Center
Sun 07:46:35 AM 38.6653 -84.0756 292° West 344 396 10,000 -50 Level Indianapolis Center
Sun 07:47:34 AM 38.6961 -84.1744 289° West 320 368 9,900 -756 Descending Indianapolis Center
Sun 07:48:34 AM 38.7206 -84.2678 287° West 290 334 8,500 -992 Descending Indianapolis Center
Sun 07:49:35 AM 38.7431 -84.3611 290° West 284 327 7,900 -950 Descending Indianapolis Center
Sun 07:50:34 AM 38.7633 -84.4333 287° West 267 307 6,600 -710 Descending Indianapolis Center
Sun 07:52:24 AM 38.8000 -84.5833 293° West 223 257 5,900 -635 Descending Cincinnati TRACON
Sun 07:53:24 AM 38.8167 -84.6333 349° North 221 254 4,800 -952 Descending Cincinnati TRACON
Sun 07:54:30 AM 38.8833 -84.6500 360° North 214 246 3,900 -1,143 Descending Cincinnati TRACON
Sun 07:55:30 AM 38.9500 -84.6500 360° North 202 232 2,400 -1,050 Descending Cincinnati TRACON
Sun 07:56:30 AM 39.0000 -84.6500 360° North 159 183 1,800 -600 Descending Cincinnati TRACON

Login

Don't have an account? Register now (free) for customized features, flight alerts, and more!